createdAt,value
2023-01-20T00:01:03.828Z,-1.45
2023-01-20T00:03:30.285Z,-1.58
2023-01-20T00:05:56.667Z,-1.70
2023-01-20T00:08:23.098Z,-1.92
2023-01-20T00:10:49.466Z,-1.85
2023-01-20T00:13:15.841Z,-1.89
2023-01-20T00:15:42.270Z,-1.92
2023-01-20T00:18:08.683Z,-1.98
2023-01-20T00:20:35.320Z,-2.00
2023-01-20T00:23:01.954Z,-2.08
2023-01-20T00:25:28.330Z,-2.01
2023-01-20T00:27:54.751Z,-1.92
2023-01-20T00:30:21.890Z,-1.83
2023-01-20T00:32:48.325Z,-1.85
2023-01-20T00:35:15.202Z,-1.90
2023-01-20T00:37:42.958Z,-2.14
2023-01-20T00:40:09.899Z,-2.20
2023-01-20T00:42:36.299Z,-1.97
2023-01-20T00:45:02.992Z,-2.15
2023-01-20T00:47:29.400Z,-2.20
2023-01-20T00:49:55.739Z,-2.27
2023-01-20T00:52:22.465Z,-2.17
2023-01-20T00:54:48.897Z,-2.16
2023-01-20T00:57:15.247Z,-2.03
2023-01-20T00:59:41.587Z,-2.19
2023-01-20T01:02:08.080Z,-2.33
2023-01-20T01:04:34.608Z,-2.25
2023-01-20T01:07:00.964Z,-2.19
2023-01-20T01:09:27.405Z,-2.22
2023-01-20T01:11:53.804Z,-2.43
2023-01-20T01:14:20.209Z,-2.32
2023-01-20T01:16:46.546Z,-2.37
2023-01-20T01:19:12.994Z,-2.42
2023-01-20T01:21:39.482Z,-2.47
2023-01-20T01:24:06.326Z,-2.46
2023-01-20T01:26:32.733Z,-2.52
2023-01-20T01:28:59.283Z,-2.59
2023-01-20T01:31:25.826Z,-2.68
2023-01-20T01:33:52.203Z,-2.58
2023-01-20T01:36:18.722Z,-2.63
2023-01-20T01:38:45.163Z,-2.62
2023-01-20T01:41:25.289Z,-2.73
2023-01-20T01:44:09.608Z,-2.74
2023-01-20T01:46:36.893Z,-2.72
2023-01-20T01:49:13.949Z,-2.66
2023-01-20T01:51:46.510Z,-2.60
2023-01-20T01:54:17.036Z,-2.54
2023-01-20T01:56:45.518Z,-2.74
2023-01-20T01:59:14.062Z,-2.71
2023-01-20T02:01:46.690Z,-2.68
2023-01-20T02:04:15.931Z,-2.78
2023-01-20T02:07:04.488Z,-2.85
2023-01-20T02:09:31.483Z,-2.66
2023-01-20T02:12:03.789Z,-2.56
2023-01-20T02:14:35.907Z,-2.56
2023-01-20T02:17:05.282Z,-2.81
2023-01-20T02:19:54.942Z,-2.84
2023-01-20T02:22:30.944Z,-2.85
2023-01-20T02:25:15.761Z,-2.86
2023-01-20T02:28:27.688Z,-2.89
2023-01-20T02:31:12.948Z,-2.89
2023-01-20T02:33:46.404Z,-3.02
2023-01-20T02:36:27.913Z,-2.87
2023-01-20T02:39:03.203Z,-2.95
2023-01-20T02:41:42.029Z,-2.82
2023-01-20T02:44:20.601Z,-2.88
2023-01-20T02:46:53.197Z,-2.77
2023-01-20T02:49:27.363Z,-2.77
2023-01-20T02:52:01.801Z,-2.87
2023-01-20T02:54:32.757Z,-2.87
2023-01-20T02:57:02.238Z,-2.89
2023-01-20T02:59:32.585Z,-2.87
2023-01-20T03:02:10.984Z,-2.87
2023-01-20T03:04:41.698Z,-2.80
2023-01-20T03:07:11.888Z,-2.71
2023-01-20T03:09:43.798Z,-2.59
2023-01-20T03:12:37.678Z,-2.81
2023-01-20T03:15:04.571Z,-2.69
2023-01-20T03:17:32.569Z,-2.72
2023-01-20T03:19:59.142Z,-2.77
2023-01-20T03:22:26.503Z,-2.75
2023-01-20T03:24:54.554Z,-2.90
2023-01-20T03:27:20.913Z,-2.91
2023-01-20T03:29:47.323Z,-2.75
2023-01-20T03:32:14.870Z,-2.78
2023-01-20T03:34:43.189Z,-2.82
2023-01-20T03:37:12.503Z,-2.66
2023-01-20T03:39:39.849Z,-2.70
2023-01-20T03:42:15.864Z,-2.62
2023-01-20T03:45:09.680Z,-2.49
2023-01-20T03:48:00.682Z,-2.56
2023-01-20T03:50:40.768Z,-2.60
2023-01-20T03:53:35.305Z,-2.49
2023-01-20T03:56:01.603Z,-2.43
2023-01-20T03:58:32.569Z,-2.36
2023-01-20T04:01:01.317Z,-2.33
2023-01-20T04:03:45.993Z,-2.30
2023-01-20T04:06:14.878Z,-2.29
2023-01-20T04:08:47.126Z,-2.24
2023-01-20T04:11:13.737Z,-2.10
2023-01-20T04:13:40.251Z,-1.97
2023-01-20T04:16:13.113Z,-1.99
2023-01-20T04:18:46.464Z,-2.08
2023-01-20T04:21:33.865Z,-1.84
2023-01-20T04:24:06.724Z,-1.77
2023-01-20T04:26:33.126Z,-1.82
2023-01-20T04:28:59.618Z,-1.66
2023-01-20T04:31:31.061Z,-1.60
2023-01-20T04:33:57.833Z,-1.68
2023-01-20T04:36:24.252Z,-1.64
2023-01-20T04:38:50.604Z,-1.53
2023-01-20T04:41:16.981Z,-1.41
2023-01-20T04:43:45.195Z,-1.51
2023-01-20T04:46:15.264Z,-1.43
2023-01-20T04:48:43.860Z,-1.51
2023-01-20T04:51:10.400Z,-1.44
2023-01-20T04:53:36.739Z,-1.39
2023-01-20T04:56:03.351Z,-1.43
2023-01-20T04:58:29.744Z,-1.46
2023-01-20T05:00:56.162Z,-1.52
2023-01-20T05:03:22.504Z,-1.39
2023-01-20T05:05:54.164Z,-1.35
2023-01-20T05:08:20.791Z,-1.40
2023-01-20T05:10:47.375Z,-1.51
2023-01-20T05:13:13.781Z,-1.58
2023-01-20T05:15:41.942Z,-1.58
2023-01-20T05:18:08.444Z,-1.46
2023-01-20T05:20:34.836Z,-1.60
2023-01-20T05:23:01.588Z,-1.48
2023-01-20T05:25:28.057Z,-1.42
2023-01-20T05:27:54.495Z,-1.26
2023-01-20T05:30:21.284Z,-1.32
2023-01-20T05:32:51.848Z,-1.24
2023-01-20T05:35:18.480Z,-0.98
2023-01-20T05:37:45.051Z,-1.02
2023-01-20T05:40:11.800Z,-1.14
2023-01-20T05:42:38.221Z,-1.13
2023-01-20T05:45:05.196Z,-1.14
2023-01-20T05:47:46.742Z,-1.02
2023-01-20T05:50:13.310Z,-1.03
2023-01-20T05:52:39.776Z,-1.06
2023-01-20T05:55:06.365Z,-1.00
2023-01-20T05:57:32.844Z,-1.03
2023-01-20T05:59:59.210Z,-0.96
2023-01-20T06:02:25.650Z,-1.04
2023-01-20T06:04:52.007Z,-1.07
2023-01-20T06:07:18.488Z,-0.95
2023-01-20T06:09:44.897Z,-0.72
2023-01-20T06:12:11.328Z,-0.90
2023-01-20T06:14:37.722Z,-0.88
2023-01-20T06:17:04.184Z,-0.82
2023-01-20T06:19:30.582Z,-0.86
2023-01-20T06:21:57.062Z,-0.91
2023-01-20T06:24:23.649Z,-0.73
2023-01-20T06:26:51.284Z,-0.78
2023-01-20T06:29:18.217Z,-0.65
2023-01-20T06:31:45.565Z,-0.69
2023-01-20T06:34:12.431Z,-0.61
2023-01-20T06:36:39.018Z,-0.73
2023-01-20T06:39:05.474Z,-0.76
2023-01-20T06:41:32.074Z,-0.65
2023-01-20T06:43:58.505Z,-0.68
2023-01-20T06:46:25.024Z,-0.64
2023-01-20T06:48:52.014Z,-0.72
2023-01-20T06:51:20.294Z,-0.74
2023-01-20T06:53:47.472Z,-0.66
2023-01-20T06:56:15.481Z,-0.60
2023-01-20T06:58:42.116Z,-0.58
2023-01-20T07:01:12.784Z,-0.57
2023-01-20T07:03:41.300Z,-0.54
2023-01-20T07:06:15.575Z,-0.42
2023-01-20T07:08:43.833Z,-0.34
2023-01-20T07:11:10.336Z,-0.22
2023-01-20T07:13:36.717Z,-0.40
2023-01-20T07:16:03.229Z,-0.44
2023-01-20T07:18:29.639Z,-0.53
2023-01-20T07:20:57.067Z,-0.34
2023-01-20T07:23:24.825Z,-0.30
2023-01-20T07:26:22.146Z,-0.38
2023-01-20T07:28:49.082Z,-0.66
2023-01-20T07:31:17.882Z,-0.69
2023-01-20T07:33:44.765Z,-0.57
2023-01-20T07:36:13.169Z,-0.57
2023-01-20T07:38:39.981Z,-0.45
2023-01-20T07:41:11.567Z,-0.11
2023-01-20T07:43:37.959Z,-0.06
2023-01-20T07:46:05.163Z,-0.02
2023-01-20T07:48:32.849Z,-0.37
2023-01-20T07:51:07.835Z,-0.43
2023-01-20T07:53:35.972Z,-0.52
2023-01-20T07:56:05.177Z,-0.37
2023-01-20T07:58:32.350Z,-0.27
2023-01-20T08:01:10.273Z,-0.23
2023-01-20T08:03:37.374Z,-0.24
2023-01-20T08:06:09.059Z,-0.12
2023-01-20T08:08:36.370Z,-0.07
2023-01-20T08:11:03.673Z,-0.13
2023-01-20T08:13:31.560Z,-0.30
2023-01-20T08:16:06.795Z,-0.45
2023-01-20T08:18:33.916Z,-0.41
2023-01-20T08:21:00.332Z,-0.41
2023-01-20T08:23:26.672Z,-0.58
2023-01-20T08:26:01.947Z,-0.46
2023-01-20T08:28:29.371Z,-0.26
2023-01-20T08:31:02.390Z,-0.17
2023-01-20T08:33:28.924Z,-0.06
2023-01-20T08:35:56.698Z,-0.03
2023-01-20T08:38:23.051Z,0.14
2023-01-20T08:40:49.488Z,0.31
2023-01-20T08:43:15.894Z,0.29
2023-01-20T08:45:43.625Z,0.28
2023-01-20T08:48:10.425Z,0.41
2023-01-20T08:50:36.857Z,0.41
2023-01-20T08:53:03.447Z,0.63
2023-01-20T08:55:31.185Z,0.66
2023-01-20T08:57:57.593Z,0.58
2023-01-20T09:00:24.230Z,0.59
2023-01-20T09:02:50.800Z,0.56
2023-01-20T09:05:17.566Z,0.54
2023-01-20T09:07:45.158Z,0.59
2023-01-20T09:10:12.307Z,0.66
2023-01-20T09:12:39.512Z,0.73
2023-01-20T09:15:07.566Z,0.88
2023-01-20T09:17:37.026Z,1.17
2023-01-20T09:20:03.599Z,1.11
2023-01-20T09:22:30.000Z,1.09
2023-01-20T09:24:56.408Z,1.06
2023-01-20T09:27:23.333Z,1.23
2023-01-20T09:29:49.731Z,1.18
2023-01-20T09:32:16.117Z,1.31
2023-01-20T09:34:42.574Z,1.31
2023-01-20T09:37:27.457Z,1.37
2023-01-20T09:40:12.648Z,1.37
2023-01-20T09:43:34.843Z,1.47
2023-01-20T09:46:08.885Z,1.60
2023-01-20T09:49:02.177Z,1.61
2023-01-20T09:52:00.029Z,1.73
2023-01-20T09:54:33.815Z,1.76
2023-01-20T09:57:02.066Z,1.85
2023-01-20T09:59:38.852Z,1.88
2023-01-20T10:02:13.401Z,1.95
2023-01-20T10:04:48.406Z,2.06
2023-01-20T10:07:20.670Z,2.16
2023-01-20T10:10:00.142Z,2.13
2023-01-20T10:12:36.485Z,2.24
2023-01-20T10:15:13.589Z,2.33
2023-01-20T10:17:47.599Z,2.34
2023-01-20T10:20:35.408Z,2.41
2023-01-20T10:23:14.178Z,2.54
2023-01-20T10:25:58.802Z,2.48
2023-01-20T10:28:32.198Z,2.68
2023-01-20T10:31:03.131Z,2.75
2023-01-20T10:33:39.447Z,2.68
2023-01-20T10:36:13.780Z,2.86
2023-01-20T10:39:09.858Z,3.08
2023-01-20T10:41:38.653Z,3.32
2023-01-20T10:44:14.635Z,3.22
2023-01-20T10:46:59.681Z,3.46
2023-01-20T10:49:37.356Z,3.37
2023-01-20T10:52:24.692Z,3.47
2023-01-20T10:55:13.249Z,3.74
2023-01-20T10:57:39.790Z,4.08
2023-01-20T11:00:20.403Z,3.95
2023-01-20T11:02:49.232Z,4.09
2023-01-20T11:05:25.873Z,4.02
2023-01-20T11:07:54.539Z,4.27
2023-01-20T11:10:27.256Z,4.53
2023-01-20T11:12:57.230Z,4.51
2023-01-20T11:15:28.300Z,4.33
2023-01-20T11:18:16.770Z,3.99
2023-01-20T11:20:55.455Z,4.10
2023-01-20T11:23:23.791Z,3.94
2023-01-20T11:25:57.947Z,4.28
2023-01-20T11:28:25.093Z,4.42
2023-01-20T11:30:56.765Z,4.69
2023-01-20T11:33:26.449Z,4.46
2023-01-20T11:36:02.262Z,4.52
2023-01-20T11:38:41.950Z,4.58
2023-01-20T11:41:18.340Z,4.61
2023-01-20T11:43:44.736Z,4.89
2023-01-20T11:46:26.224Z,4.69
2023-01-20T11:49:19.765Z,4.49
2023-01-20T11:51:49.153Z,4.70
2023-01-20T11:54:37.421Z,4.93
2023-01-20T11:57:07.562Z,4.65
2023-01-20T11:59:36.372Z,4.96
2023-01-20T12:02:08.844Z,4.59
2023-01-20T12:05:02.153Z,4.58
2023-01-20T12:07:42.954Z,4.59
2023-01-20T12:10:26.267Z,4.81
2023-01-20T12:13:18.111Z,4.56
2023-01-20T12:15:52.894Z,4.61
2023-01-20T12:18:32.320Z,4.49
2023-01-20T12:21:18.388Z,4.80
2023-01-20T12:24:02.884Z,4.68
2023-01-20T12:26:29.598Z,4.68
2023-01-20T12:28:58.322Z,4.68
2023-01-20T12:31:25.288Z,4.68
2023-01-20T12:33:59.339Z,4.62
2023-01-20T12:36:44.499Z,4.76
2023-01-20T12:39:44.774Z,4.67
2023-01-20T12:42:29.781Z,4.80
2023-01-20T12:45:03.157Z,4.72
2023-01-20T12:47:47.772Z,4.60
2023-01-20T12:50:54.144Z,4.59
2023-01-20T12:53:39.216Z,4.55
2023-01-20T12:56:16.164Z,4.51
2023-01-20T12:59:04.469Z,4.55
2023-01-20T13:01:42.633Z,4.39
2023-01-20T13:04:30.690Z,4.49
2023-01-20T13:07:34.705Z,4.45
2023-01-20T13:10:33.437Z,4.66
2023-01-20T13:13:18.179Z,4.64
2023-01-20T13:16:06.784Z,4.70
2023-01-20T13:18:51.381Z,4.81
2023-01-20T13:21:21.038Z,4.63
2023-01-20T13:23:50.382Z,4.61
2023-01-20T13:26:17.447Z,4.73
2023-01-20T13:28:52.386Z,4.77
2023-01-20T13:31:46.038Z,5.00
2023-01-20T13:34:21.253Z,4.73
2023-01-20T13:37:03.317Z,4.55
2023-01-20T13:39:29.841Z,4.63
2023-01-20T13:41:56.621Z,4.53
2023-01-20T13:44:35.339Z,4.58
2023-01-20T13:47:02.837Z,4.34
2023-01-20T13:49:46.726Z,4.52
2023-01-20T13:52:13.251Z,4.33
2023-01-20T13:54:44.825Z,4.26
2023-01-20T13:57:20.417Z,4.50
2023-01-20T13:59:46.956Z,4.54
2023-01-20T14:02:24.775Z,4.42
2023-01-20T14:04:52.520Z,4.41
2023-01-20T14:07:30.493Z,4.39
2023-01-20T14:09:59.365Z,4.60
2023-01-20T14:12:26.572Z,4.40
2023-01-20T14:14:53.481Z,4.29
2023-01-20T14:17:23.544Z,4.36
2023-01-20T14:19:55.361Z,4.40
2023-01-20T14:22:27.226Z,4.14
2023-01-20T14:24:57.253Z,4.31
2023-01-20T14:27:31.312Z,4.33
2023-01-20T14:30:14.358Z,4.39
2023-01-20T14:32:41.446Z,4.13
2023-01-20T14:35:20.994Z,4.16
2023-01-20T14:37:50.654Z,4.13
2023-01-20T14:40:25.127Z,4.16
2023-01-20T14:42:56.779Z,4.21
2023-01-20T14:45:27.923Z,4.51
2023-01-20T14:47:55.369Z,4.23
2023-01-20T14:50:22.102Z,4.12
2023-01-20T14:52:48.848Z,4.34
2023-01-20T14:55:35.970Z,4.23
2023-01-20T14:58:32.025Z,4.10
2023-01-20T15:01:02.739Z,3.85
2023-01-20T15:03:30.243Z,3.84
2023-01-20T15:06:07.051Z,3.80
2023-01-20T15:08:33.365Z,3.95
2023-01-20T15:11:16.457Z,3.82
2023-01-20T15:14:09.988Z,3.93
2023-01-20T15:16:36.326Z,3.88
2023-01-20T15:19:18.495Z,3.90
2023-01-20T15:21:47.942Z,3.76
2023-01-20T15:24:17.398Z,3.69
2023-01-20T15:26:45.373Z,3.72
2023-01-20T15:29:29.166Z,3.71
2023-01-20T15:31:58.117Z,3.75
2023-01-20T15:34:26.053Z,3.72
2023-01-20T15:36:53.582Z,3.79
2023-01-20T15:39:22.402Z,3.88
2023-01-20T15:41:55.231Z,3.53
2023-01-20T15:44:22.392Z,3.45
2023-01-20T15:46:48.832Z,3.14
2023-01-20T15:49:17.039Z,3.16
2023-01-20T15:51:44.880Z,2.78
2023-01-20T15:54:13.514Z,2.80
2023-01-20T15:56:42.165Z,2.64
2023-01-20T15:59:13.522Z,2.64
2023-01-20T16:01:40.029Z,2.51
2023-01-20T16:04:06.507Z,2.43
2023-01-20T16:06:34.086Z,2.35
2023-01-20T16:09:01.819Z,2.45
2023-01-20T16:11:28.232Z,2.56
2023-01-20T16:13:54.595Z,2.47
2023-01-20T16:16:23.594Z,2.65
2023-01-20T16:18:50.277Z,2.48
2023-01-20T16:21:19.034Z,2.37
2023-01-20T16:23:45.633Z,2.33
2023-01-20T16:26:20.357Z,2.40
2023-01-20T16:28:46.720Z,2.35
2023-01-20T16:31:13.534Z,2.33
2023-01-20T16:33:39.999Z,2.36
2023-01-20T16:36:13.066Z,2.03
2023-01-20T16:38:39.634Z,2.03
2023-01-20T16:41:20.681Z,1.84
2023-01-20T16:43:47.409Z,1.71
2023-01-20T16:46:22.563Z,1.60
2023-01-20T16:48:49.425Z,1.40
2023-01-20T16:51:21.925Z,1.46
2023-01-20T16:53:49.229Z,1.45
2023-01-20T16:56:21.783Z,1.38
2023-01-20T16:58:49.892Z,1.29
2023-01-20T17:01:21.050Z,1.32
2023-01-20T17:03:48.090Z,1.44
2023-01-20T17:06:17.810Z,1.41
2023-01-20T17:08:45.959Z,1.38
2023-01-20T17:11:24.938Z,1.56
2023-01-20T17:13:51.792Z,1.64
2023-01-20T17:16:19.268Z,1.61
2023-01-20T17:18:50.194Z,1.53
2023-01-20T17:21:19.555Z,1.63
2023-01-20T17:23:51.203Z,1.51
2023-01-20T17:26:18.272Z,1.40
2023-01-20T17:28:44.960Z,1.51
2023-01-20T17:31:11.784Z,1.42
2023-01-20T17:33:38.551Z,1.34
2023-01-20T17:36:06.246Z,1.38
2023-01-20T17:38:34.526Z,1.31
2023-01-20T17:41:04.760Z,1.33
2023-01-20T17:43:32.784Z,1.26
2023-01-20T17:45:59.796Z,1.34
2023-01-20T17:48:26.705Z,1.26
2023-01-20T17:50:58.930Z,1.22
2023-01-20T17:53:26.593Z,1.50
2023-01-20T17:56:03.093Z,1.59
2023-01-20T17:58:37.705Z,1.65
2023-01-20T18:01:16.606Z,1.61
2023-01-20T18:03:43.913Z,1.47
2023-01-20T18:06:12.162Z,1.61
2023-01-20T18:08:39.023Z,1.72
2023-01-20T18:11:08.357Z,1.64
2023-01-20T18:13:35.488Z,1.56
2023-01-20T18:16:13.142Z,1.47
2023-01-20T18:18:40.500Z,1.53
2023-01-20T18:21:13.489Z,1.45
2023-01-20T18:23:40.667Z,1.47
2023-01-20T18:26:08.617Z,1.29
2023-01-20T18:28:35.778Z,1.32
2023-01-20T18:31:08.361Z,1.22
2023-01-20T18:33:47.539Z,1.32
2023-01-20T18:36:23.464Z,1.31
2023-01-20T18:38:55.171Z,1.30
2023-01-20T18:41:22.039Z,1.28
2023-01-20T18:43:49.066Z,1.32
2023-01-20T18:46:16.324Z,1.42
2023-01-20T18:48:47.293Z,1.41
2023-01-20T18:51:15.901Z,1.67
2023-01-20T18:53:44.593Z,1.54
2023-01-20T18:56:14.156Z,1.38
2023-01-20T18:58:45.606Z,1.40
2023-01-20T19:01:14.476Z,1.43
2023-01-20T19:03:41.138Z,1.37
2023-01-20T19:06:12.040Z,1.31
2023-01-20T19:08:40.088Z,1.25
2023-01-20T19:11:10.026Z,1.32
2023-01-20T19:13:36.523Z,1.43
2023-01-20T19:16:03.009Z,1.47
2023-01-20T19:18:29.609Z,1.55
2023-01-20T19:20:56.169Z,1.52
2023-01-20T19:23:22.602Z,1.41
2023-01-20T19:25:59.396Z,1.48
2023-01-20T19:28:25.790Z,1.75
2023-01-20T19:30:52.234Z,1.66
2023-01-20T19:33:18.643Z,1.58
2023-01-20T19:35:44.985Z,1.54
2023-01-20T19:38:11.333Z,1.53
2023-01-20T19:40:39.187Z,1.52
2023-01-20T19:43:05.606Z,1.67
2023-01-20T19:45:45.498Z,1.58
2023-01-20T19:48:12.411Z,1.51
2023-01-20T19:50:38.825Z,1.46
2023-01-20T19:53:05.302Z,1.55
2023-01-20T19:55:31.939Z,1.46
2023-01-20T19:57:58.278Z,1.32
2023-01-20T20:00:24.804Z,1.45
2023-01-20T20:02:54.414Z,1.34
2023-01-20T20:05:20.850Z,1.42
2023-01-20T20:07:47.305Z,1.44
2023-01-20T20:10:13.991Z,1.39
2023-01-20T20:12:40.585Z,1.39
2023-01-20T20:15:07.301Z,1.31
2023-01-20T20:17:33.662Z,1.32
2023-01-20T20:20:00.040Z,1.31
2023-01-20T20:22:26.618Z,1.36
2023-01-20T20:24:52.997Z,1.35
2023-01-20T20:27:19.347Z,1.30
2023-01-20T20:29:45.741Z,1.34
2023-01-20T20:32:12.191Z,1.30
2023-01-20T20:34:38.659Z,1.28
2023-01-20T20:37:05.107Z,1.31
2023-01-20T20:39:31.473Z,1.43
2023-01-20T20:41:57.932Z,1.51
2023-01-20T20:44:24.318Z,1.60
2023-01-20T20:46:50.767Z,1.41
2023-01-20T20:49:17.865Z,1.45
2023-01-20T20:51:44.801Z,1.49
2023-01-20T20:54:13.906Z,1.44
2023-01-20T20:56:40.473Z,1.55
2023-01-20T20:59:06.854Z,1.60
2023-01-20T21:01:34.338Z,1.51
2023-01-20T21:04:02.071Z,1.45
2023-01-20T21:06:29.574Z,1.38
2023-01-20T21:08:56.465Z,1.57
2023-01-20T21:11:24.068Z,1.58
2023-01-20T21:13:50.550Z,1.43
2023-01-20T21:16:20.793Z,1.49
2023-01-20T21:18:48.276Z,1.51
2023-01-20T21:21:19.368Z,1.48
2023-01-20T21:23:50.770Z,1.45
2023-01-20T21:26:17.207Z,1.44
2023-01-20T21:28:44.377Z,1.42
2023-01-20T21:31:15.706Z,1.46
2023-01-20T21:33:45.706Z,1.53
2023-01-20T21:36:13.006Z,1.47
2023-01-20T21:38:42.898Z,1.57
2023-01-20T21:41:10.426Z,1.47
2023-01-20T21:43:58.947Z,1.44
2023-01-20T21:46:27.969Z,1.36
2023-01-20T21:49:13.163Z,1.32
2023-01-20T21:51:57.783Z,1.27
2023-01-20T21:54:31.051Z,1.25
2023-01-20T21:56:58.653Z,1.30
2023-01-20T21:59:25.409Z,1.33
2023-01-20T22:01:52.375Z,1.38
2023-01-20T22:04:19.178Z,1.43
2023-01-20T22:06:45.906Z,1.39
2023-01-20T22:09:12.682Z,1.39
2023-01-20T22:11:39.124Z,1.45
2023-01-20T22:14:05.670Z,1.31
2023-01-20T22:16:32.305Z,1.45
2023-01-20T22:18:58.695Z,1.40
2023-01-20T22:21:25.561Z,1.45
2023-01-20T22:23:53.500Z,1.37
2023-01-20T22:26:20.135Z,1.32
2023-01-20T22:28:46.661Z,1.50
2023-01-20T22:31:17.658Z,1.42
2023-01-20T22:33:44.117Z,1.41
2023-01-20T22:36:10.579Z,1.53
2023-01-20T22:38:36.927Z,1.68
2023-01-20T22:41:08.374Z,1.69
2023-01-20T22:43:35.358Z,1.41
2023-01-20T22:46:02.959Z,1.43
2023-01-20T22:48:31.729Z,1.68
2023-01-20T22:51:13.041Z,1.58
2023-01-20T22:53:39.983Z,1.48
2023-01-20T22:56:09.696Z,1.47
2023-01-20T22:58:37.114Z,1.55
2023-01-20T23:01:03.689Z,1.26
2023-01-20T23:03:30.189Z,1.22
2023-01-20T23:05:59.868Z,1.22
2023-01-20T23:08:28.390Z,1.15
2023-01-20T23:11:01.637Z,1.15
2023-01-20T23:13:31.140Z,1.19
2023-01-20T23:15:57.846Z,1.15
2023-01-20T23:18:25.114Z,1.16
2023-01-20T23:20:53.337Z,1.22
2023-01-20T23:23:21.550Z,1.16
2023-01-20T23:25:47.929Z,1.15
2023-01-20T23:28:14.614Z,1.11
2023-01-20T23:30:41.078Z,1.13
2023-01-20T23:33:08.358Z,1.13
2023-01-20T23:35:38.791Z,1.13
2023-01-20T23:38:07.043Z,1.24
2023-01-20T23:40:34.744Z,1.11
2023-01-20T23:43:01.773Z,1.09
2023-01-20T23:45:28.791Z,1.06
2023-01-20T23:47:55.515Z,1.02
2023-01-20T23:50:21.944Z,1.04
2023-01-20T23:52:48.354Z,1.01
2023-01-20T23:55:14.771Z,1.02
2023-01-20T23:57:41.166Z,1.04
